createdAt,value
2019-04-22T00:05:06.114Z,32.70
2019-04-22T00:15:16.361Z,32.90
2019-04-22T00:25:31.066Z,33.10
2019-04-22T00:35:25.607Z,33.20
2019-04-22T00:45:37.510Z,33.40
2019-04-22T00:56:05.698Z,33.60
2019-04-22T01:06:13.113Z,33.80
2019-04-22T01:16:20.421Z,33.90
2019-04-22T01:26:13.960Z,34.20
2019-04-22T01:36:19.426Z,34.40
2019-04-22T01:46:31.523Z,34.60
2019-04-22T01:56:39.343Z,34.80
2019-04-22T02:16:41.671Z,35.40
2019-04-22T02:26:46.998Z,35.50
2019-04-22T02:36:54.782Z,35.70
2019-04-22T02:47:09.849Z,36.00
2019-04-22T02:57:04.320Z,36.10
2019-04-22T03:06:59.388Z,36.20
2019-04-22T03:17:11.415Z,36.40
2019-04-22T03:47:27.285Z,37.10
2019-04-22T03:57:44.747Z,37.00
2019-04-22T04:17:37.263Z,37.10
2019-04-22T04:58:06.079Z,38.40
2019-04-22T05:07:55.361Z,38.30
2019-04-22T05:17:57.823Z,38.00
2019-04-22T05:28:12.181Z,37.80
2019-04-22T05:38:04.831Z,37.20
2019-04-22T05:48:00.972Z,36.70
2019-04-22T05:58:12.403Z,35.80
2019-04-22T06:08:10.625Z,35.60
2019-04-22T06:18:22.552Z,35.10
2019-04-22T06:28:31.950Z,34.70
2019-04-22T06:48:31.688Z,34.10
2019-04-22T06:58:36.822Z,33.90
2019-04-22T07:18:45.221Z,33.50
2019-04-22T07:28:47.020Z,33.50
2019-04-22T07:38:43.883Z,33.40
2019-04-22T07:48:53.097Z,34.00
2019-04-22T07:58:58.702Z,34.40
2019-04-22T08:09:01.798Z,34.60
2019-04-22T08:19:12.242Z,34.00
2019-04-22T08:29:14.849Z,33.00
2019-04-22T08:39:16.784Z,32.50
2019-04-22T08:49:10.222Z,32.20
2019-04-22T08:59:19.423Z,31.90
2019-04-22T09:09:27.176Z,31.10
2019-04-22T09:19:41.767Z,30.20
2019-04-22T09:29:34.022Z,29.40
2019-04-22T09:39:34.185Z,27.80
2019-04-22T09:49:44.743Z,26.10
2019-04-22T10:10:27.033Z,23.10
2019-04-22T10:20:36.258Z,22.40
2019-04-22T10:30:44.446Z,21.80
2019-04-22T10:40:15.821Z,21.20
2019-04-22T10:50:22.610Z,20.70
2019-04-22T11:00:25.026Z,19.90
2019-04-22T11:10:44.560Z,19.30
2019-04-22T11:20:31.422Z,18.80
2019-04-22T11:30:34.415Z,18.20
2019-04-22T11:40:40.594Z,17.80
2019-04-22T11:50:41.910Z,17.20
2019-04-22T12:00:45.111Z,16.50
2019-04-22T12:10:53.189Z,15.90
2019-04-22T12:20:51.017Z,15.60
2019-04-22T12:30:53.521Z,14.90
2019-04-22T12:41:00.448Z,13.60
2019-04-22T12:51:00.754Z,10.00
2019-04-22T13:01:03.494Z,4.60
2019-04-22T13:11:11.741Z,3.40
2019-04-22T13:21:10.745Z,1.00
2019-04-22T13:31:13.854Z,1.00
2019-04-22T13:41:28.218Z,1.00
2019-04-22T14:01:24.762Z,1.00
2019-04-22T14:11:36.632Z,1.00
2019-04-22T14:21:30.761Z,1.00
2019-04-22T14:31:32.889Z,1.00
2019-04-22T14:41:46.711Z,1.00
2019-04-22T14:52:05.057Z,1.00
2019-04-22T15:01:45.637Z,1.00
2019-04-22T15:11:58.496Z,1.00
2019-04-22T15:21:52.573Z,1.00
2019-04-22T15:31:55.730Z,1.00
2019-04-22T15:42:09.548Z,1.50
2019-04-22T15:52:03.910Z,4.30
2019-04-22T16:02:06.597Z,5.60
2019-04-22T16:12:16.350Z,7.00
2019-04-22T16:22:18.567Z,8.20
2019-04-22T16:32:17.302Z,8.80
2019-04-22T16:42:31.168Z,9.30
2019-04-22T16:52:23.795Z,9.90
2019-04-22T17:02:26.505Z,10.50
2019-04-22T17:12:43.248Z,11.20
2019-04-22T17:22:33.581Z,11.50
2019-04-22T17:32:35.736Z,11.90
2019-04-22T17:42:55.466Z,12.00
2019-04-22T17:53:08.283Z,12.40
2019-04-22T18:03:00.565Z,12.80
2019-04-22T18:13:20.357Z,13.40
2019-04-22T18:23:02.645Z,14.30
2019-04-22T18:33:21.123Z,14.70
2019-04-22T18:43:26.223Z,15.00
2019-04-22T18:53:29.807Z,15.30
2019-04-22T19:03:15.678Z,15.70
2019-04-22T19:23:41.174Z,16.20
2019-04-22T19:33:47.813Z,16.50
2019-04-22T19:43:46.893Z,16.80
2019-04-22T19:53:51.251Z,17.00
2019-04-22T20:04:08.052Z,17.20
2019-04-22T20:14:02.553Z,17.40
2019-04-22T20:23:51.753Z,17.60
2019-04-22T20:34:07.765Z,17.70
2019-04-22T20:44:13.303Z,18.50
2019-04-22T20:54:11.971Z,18.10
2019-04-22T21:04:01.576Z,18.20
2019-04-22T21:14:14.829Z,18.30
2019-04-22T21:24:23.666Z,18.60
2019-04-22T21:34:20.551Z,18.80
2019-04-22T21:44:30.684Z,19.00
2019-04-22T21:54:44.289Z,19.30
2019-04-22T22:04:36.572Z,19.40
2019-04-22T22:14:47.771Z,19.70
2019-04-22T22:24:55.098Z,20.00
2019-04-22T22:34:50.745Z,20.30
2019-04-22T22:44:40.365Z,20.70
2019-04-22T22:55:00.410Z,20.80
2019-04-22T23:05:05.825Z,21.10
2019-04-22T23:15:04.679Z,21.40
2019-04-22T23:25:07.754Z,21.80
2019-04-22T23:35:14.438Z,22.10
2019-04-22T23:45:15.987Z,22.50
2019-04-22T23:55:23.122Z,22.80
